Time;durP1;ratioP1;P1;durP2;ratioP2;P2;SDS_P1;SDS_P2;PMS_P1;PMS_P2;Temp;Humidity;BMP_temperature;BMP_pressure;BME280_temperature;BME280_humidity;BME280_pressure;Samples;Min_cycle;Max_cycle;Signal;HPM_P1;HPM_P2
2021/12/26 00:02:02;;;;;;;32.78;18.40;;;;;;;1.25;84.48;98004.88;2618264;47;20041;-67
2021/12/26 00:04:33;;;;;;;35.33;18.55;;;;;;;1.29;84.50;98008.81;2618041;47;20034;-68
2021/12/26 00:07:06;;;;;;;42.15;20.38;;;;;;;1.33;84.63;98004.94;2618224;54;20042;-68
2021/12/26 00:09:36;;;;;;;36.95;18.60;;;;;;;1.35;84.46;98013.44;2618324;54;20046;-67
2021/12/26 00:12:07;;;;;;;34.13;18.52;;;;;;;1.37;84.58;98010.66;2618260;47;20026;-68
2021/12/26 00:14:36;;;;;;;39.30;19.63;;;;;;;1.33;84.57;98004.13;2619029;54;20039;-67
2021/12/26 00:17:06;;;;;;;36.97;19.23;;;;;;;1.33;84.84;98001.53;2618287;47;20053;-67
2021/12/26 00:19:36;;;;;;;42.05;18.85;;;;;;;1.37;84.69;97998.44;2618905;54;20019;-68
2021/12/26 00:22:08;;;;;;;32.88;18.80;;;;;;;1.40;84.64;98003.34;2618183;52;20027;-68
2021/12/26 00:24:38;;;;;;;34.00;19.15;;;;;;;1.45;84.99;98002.91;2618372;47;20026;-67
2021/12/26 00:27:08;;;;;;;34.92;18.30;;;;;;;1.37;84.64;98006.25;2618541;54;20034;-68
2021/12/26 00:29:37;;;;;;;39.92;19.98;;;;;;;1.33;84.60;98007.53;2619237;54;20556;-67
2021/12/26 00:32:08;;;;;;;38.05;19.60;;;;;;;1.39;84.68;98008.72;2618654;47;20034;-67
2021/12/26 00:34:39;;;;;;;36.55;20.08;;;;;;;1.43;84.73;97999.63;2618522;54;20039;-66
2021/12/26 00:37:11;;;;;;;34.78;18.63;;;;;;;1.42;84.63;98000.59;2618457;54;20056;-67
2021/12/26 00:39:41;;;;;;;36.03;20.15;;;;;;;1.42;84.58;98000.59;2618317;47;20034;-67
2021/12/26 00:42:11;;;;;;;36.83;19.08;;;;;;;1.39;84.72;97993.91;2619108;54;20042;-67
2021/12/26 00:44:41;;;;;;;35.05;18.88;;;;;;;1.43;84.91;97994.44;2618236;54;20042;-67
2021/12/26 00:47:14;;;;;;;35.88;19.25;;;;;;;1.42;85.00;97993.59;2618048;54;20047;-68
2021/12/26 00:49:44;;;;;;;34.70;18.20;;;;;;;1.40;84.68;97995.53;2618854;54;20058;-68
2021/12/26 00:52:16;;;;;;;34.08;18.10;;;;;;;1.35;84.66;97995.19;2618757;54;20569;-67
2021/12/26 00:54:46;;;;;;;34.03;19.80;;;;;;;1.34;85.14;97987.53;2618720;39;20421;-68
2021/12/26 00:57:16;;;;;;;37.30;20.17;;;;;;;1.39;85.31;97987.91;2618455;47;20031;-68
2021/12/26 00:59:46;;;;;;;39.85;19.60;;;;;;;1.37;85.28;97982.81;2618351;47;20030;-67
2021/12/26 01:02:16;;;;;;;35.85;18.58;;;;;;;1.39;85.30;97986.09;2618242;47;20045;-68
2021/12/26 01:04:46;;;;;;;36.38;19.77;;;;;;;1.39;85.01;97999.13;2618119;54;20058;-68
2021/12/26 01:07:29;;;;;;;35.08;20.48;;;;;;;1.47;85.35;97998.38;2617748;47;20031;-68
2021/12/26 01:09:59;;;;;;;34.67;18.45;;;;;;;1.52;85.10;97998.72;2618505;54;20065;-67
2021/12/26 01:12:30;;;;;;;36.03;18.85;;;;;;;1.57;84.84;97993.03;2619746;54;20560;-68
2021/12/26 01:15:05;;;;;;;35.05;18.88;;;;;;;1.59;84.63;97998.88;2620447;54;20032;-68
2021/12/26 01:17:55;;;;;;;35.38;18.85;;;;;;;1.57;84.93;97993.03;2621951;54;20023;-67
2021/12/26 01:20:42;;;;;;;34.95;18.40;;;;;;;1.54;84.66;97990.72;2621643;39;20185;-68
2021/12/26 01:23:17;;;;;;;36.22;19.58;;;;;;;1.51;84.57;97991.88;2621903;54;20031;-68
2021/12/26 01:25:47;;;;;;;38.08;20.00;;;;;;;1.58;84.76;97992.03;2621458;47;20162;-68
2021/12/26 01:28:17;;;;;;;38.33;19.58;;;;;;;1.59;84.48;97996.28;2621822;50;20073;-67
2021/12/26 01:30:48;;;;;;;42.05;22.35;;;;;;;1.56;84.54;97988.81;2622136;54;20034;-68
2021/12/26 01:33:20;;;;;;;34.75;17.52;;;;;;;1.45;84.44;97990.69;2622800;47;20073;-68
2021/12/26 01:36:01;;;;;;;36.40;19.23;;;;;;;1.45;84.59;97989.88;2624302;46;20034;-68
2021/12/26 01:38:44;;;;;;;38.30;19.92;;;;;;;1.48;85.29;97993.00;2624528;54;20166;-67
2021/12/26 01:41:38;;;;;;;36.60;19.73;;;;;;;1.44;84.96;97991.66;2625208;47;20085;-67
2021/12/26 01:44:33;;;;;;;40.42;20.05;;;;;;;1.37;85.07;97998.44;2625131;39;20510;-67
2021/12/26 01:47:11;;;;;;;40.47;20.25;;;;;;;1.35;85.18;97989.19;2623989;47;20031;-68
2021/12/26 01:49:41;;;;;;;43.60;20.65;;;;;;;1.38;85.31;97991.44;2623978;47;20038;-68
2021/12/26 01:52:11;;;;;;;39.13;19.33;;;;;;;1.38;85.27;98001.88;2624349;54;20121;-68
2021/12/26 01:54:47;;;;;;;36.92;16.42;;;;;;;1.32;84.94;98000.72;2623718;54;20026;-68
2021/12/26 01:57:22;;;;;;;35.70;20.25;;;;;;;1.30;85.18;97997.41;2622201;39;20465;-67
2021/12/26 01:59:53;;;;;;;39.17;20.25;;;;;;;1.33;85.53;98002.34;2620060;47;20030;-68
2021/12/26 02:02:25;;;;;;;39.35;19.70;;;;;;;1.37;85.90;97997.63;2619972;54;20065;-68
2021/12/26 02:04:54;;;;;;;34.95;18.77;;;;;;;1.42;85.49;98004.00;2619260;47;20030;-67
2021/12/26 02:07:27;;;;;;;39.28;19.75;;;;;;;1.38;85.60;98002.69;2619119;54;20026;-68
2021/12/26 02:10:01;;;;;;;37.65;19.30;;;;;;;1.38;85.22;98005.28;2618684;54;20069;-68
2021/12/26 02:12:31;;;;;;;37.25;19.85;;;;;;;1.35;85.03;98004.81;2618781;47;20034;-67
2021/12/26 02:15:01;;;;;;;43.53;20.15;;;;;;;1.31;85.50;98009.50;2618582;46;20042;-68
2021/12/26 02:17:51;;;;;;;37.45;20.52;;;;;;;1.34;85.62;98003.16;2618694;54;20038;-68
2021/12/26 02:20:34;;;;;;;43.63;21.40;;;;;;;1.40;85.60;97997.34;2621006;54;20026;-68
2021/12/26 02:23:10;;;;;;;38.72;17.40;;;;;;;1.39;85.22;97996.53;2624051;54;20096;-68
2021/12/26 02:28:23;;;;;;;40.13;17.67;;;;;;;1.28;85.26;97991.56;2623712;46;20041;-69
2021/12/26 02:30:55;;;;;;;40.63;19.67;;;;;;;1.31;85.36;97982.66;2624048;54;20058;-68
2021/12/26 02:33:25;;;;;;;40.92;20.50;;;;;;;1.31;85.75;97987.84;2623457;54;20023;-67
2021/12/26 02:35:58;;;;;;;41.08;20.65;;;;;;;1.36;85.56;97986.41;2623984;54;20022;-68
2021/12/26 02:38:28;;;;;;;39.30;19.38;;;;;;;1.36;85.26;97990.81;2622059;46;20022;-68
2021/12/26 02:40:59;;;;;;;45.78;20.67;;;;;;;1.39;85.36;97986.09;2619041;47;20034;-67
2021/12/26 02:43:33;;;;;;;41.22;20.15;;;;;;;1.38;85.23;97987.06;2618636;54;20038;-68
2021/12/26 02:46:06;;;;;;;45.55;20.63;;;;;;;1.32;84.95;97985.09;2618019;54;20577;-67
2021/12/26 02:48:40;;;;;;;42.10;20.23;;;;;;;1.26;85.54;97985.69;2618760;54;20086;-67
2021/12/26 02:51:14;;;;;;;44.42;21.00;;;;;;;1.28;85.57;97982.94;2618300;54;20030;-67
2021/12/26 02:53:44;;;;;;;39.72;19.40;;;;;;;1.31;85.75;97990.47;2618521;54;20034;-67
2021/12/26 02:56:14;;;;;;;44.28;20.15;;;;;;;1.32;85.70;97986.88;2618767;54;20542;-68
2021/12/26 02:58:43;;;;;;;42.97;21.45;;;;;;;1.29;85.27;97987.97;2618605;54;20042;-67
2021/12/26 03:01:15;;;;;;;35.88;18.90;;;;;;;1.35;85.13;97989.19;2619695;54;20079;-70
2021/12/26 03:03:46;;;;;;;40.60;20.00;;;;;;;1.34;85.13;97984.91;2623258;54;20078;-69
2021/12/26 03:06:25;;;;;;;39.80;19.17;;;;;;;1.34;85.14;97993.53;2622832;47;20030;-67
2021/12/26 03:08:56;;;;;;;39.17;20.33;;;;;;;1.34;85.09;97990.13;2623436;54;20077;-67
2021/12/26 03:11:26;;;;;;;36.88;17.83;;;;;;;1.31;85.04;97983.47;2623883;39;20441;-68
2021/12/26 03:13:56;;;;;;;41.42;19.98;;;;;;;1.34;85.40;97985.72;2622820;54;20031;-67
2021/12/26 03:16:26;;;;;;;42.63;19.77;;;;;;;1.39;85.61;97983.50;2619419;54;20046;-67
2021/12/26 03:18:58;;;;;;;37.10;20.33;;;;;;;1.39;84.82;97982.69;2621152;54;20030;-67
2021/12/26 03:21:30;;;;;;;43.22;19.50;;;;;;;1.36;85.10;97981.19;2619689;46;20030;-67
2021/12/26 03:24:00;;;;;;;42.53;20.25;;;;;;;1.26;85.07;97985.69;2621965;54;20041;-68
2021/12/26 03:26:30;;;;;;;40.78;20.92;;;;;;;1.24;84.85;97985.84;2620567;54;20043;-67
2021/12/26 03:29:00;;;;;;;42.95;21.88;;;;;;;1.27;85.54;97987.34;2620095;54;20041;-67
2021/12/26 03:31:29;;;;;;;49.55;19.65;;;;;;;1.26;85.37;97988.28;2620255;47;20039;-67
2021/12/26 03:33:59;;;;;;;43.85;20.98;;;;;;;1.23;85.22;97986.00;2620032;54;20022;-67
2021/12/26 03:36:32;;;;;;;43.17;20.00;;;;;;;1.22;85.52;97973.94;2620270;47;20030;-66
2021/12/26 03:39:02;;;;;;;41.35;21.08;;;;;;;1.31;85.52;97977.44;2619723;54;20027;-67
2021/12/26 03:41:33;;;;;;;36.65;19.05;;;;;;;1.31;85.55;97983.47;2619484;54;20022;-67
2021/12/26 03:44:05;;;;;;;38.35;20.77;;;;;;;1.27;85.10;97979.53;2619827;54;20082;-68
2021/12/26 03:46:35;;;;;;;38.95;19.20;;;;;;;1.33;85.61;97981.50;2618645;47;20545;-67
2021/12/26 03:49:06;;;;;;;39.63;21.48;;;;;;;1.38;85.75;97974.03;2619697;54;20077;-68
2021/12/26 03:51:38;;;;;;;39.25;20.17;;;;;;;1.40;85.43;97979.91;2624878;47;20030;-67
2021/12/26 03:54:09;;;;;;;42.22;21.33;;;;;;;1.36;84.95;97981.19;2626646;47;20037;-68
2021/12/26 03:56:40;;;;;;;41.88;19.80;;;;;;;1.38;85.11;97981.84;2621658;47;20036;-68
2021/12/26 03:59:16;;;;;;;39.13;19.60;;;;;;;1.31;84.86;97977.44;2618869;51;20582;-67
2021/12/26 04:01:46;;;;;;;41.13;19.88;;;;;;;1.27;85.34;97981.31;2618654;54;20019;-68
2021/12/26 04:04:16;;;;;;;40.33;20.38;;;;;;;1.29;85.07;97977.56;2619111;47;20026;-67
2021/12/26 04:06:50;;;;;;;42.50;21.13;;;;;;;1.38;85.44;97974.03;2618873;54;20038;-68
2021/12/26 04:09:20;;;;;;;42.30;21.63;;;;;;;1.43;85.41;97977.00;2619290;47;20038;-67
2021/12/26 04:11:50;;;;;;;39.80;21.52;;;;;;;1.47;85.51;97978.34;2619037;54;20053;-68
2021/12/26 04:14:22;;;;;;;40.92;20.42;;;;;;;1.48;85.19;97976.53;2618248;54;20033;-68
2021/12/26 04:16:52;;;;;;;42.38;21.10;;;;;;;1.43;84.44;97978.81;2618483;54;20019;-67
2021/12/26 04:19:22;;;;;;;39.47;20.10;;;;;;;1.38;84.64;97975.81;2617974;54;20121;-68
2021/12/26 04:21:54;;;;;;;46.67;23.13;;;;;;;1.39;84.83;97974.88;2618184;50;20037;-67
2021/12/26 04:24:24;;;;;;;45.90;20.85;;;;;;;1.44;84.64;97972.63;2620479;31;20545;-68
2021/12/26 04:26:54;;;;;;;44.58;21.10;;;;;;;1.43;84.98;97973.59;2617534;47;20034;-69
2021/12/26 04:29:26;;;;;;;43.85;21.23;;;;;;;1.41;85.07;97978.94;2617848;47;20037;-68
2021/12/26 04:31:55;;;;;;;46.90;22.40;;;;;;;1.42;84.75;97979.75;2617884;54;20030;-68
2021/12/26 04:34:25;;;;;;;42.45;20.77;;;;;;;1.36;84.36;97977.78;2617670;54;20590;-68
2021/12/26 04:36:57;;;;;;;44.08;22.60;;;;;;;1.35;84.76;97982.19;2617588;54;20035;-66
2021/12/26 04:39:27;;;;;;;41.20;20.65;;;;;;;1.39;85.10;97975.69;2618073;54;20030;-66
2021/12/26 04:41:57;;;;;;;40.97;20.10;;;;;;;1.41;85.19;97981.53;2618041;54;20038;-67
2021/12/26 04:44:52;;;;;;;45.40;21.88;;;;;;;1.41;84.97;97983.34;2618204;54;20599;-66
2021/12/26 04:47:54;;;;;;;41.58;20.40;;;;;;;1.39;84.80;97980.91;2618181;54;20537;-66
2021/12/26 04:50:28;;;;;;;48.85;22.02;;;;;;;1.38;84.81;97981.03;2618142;54;20061;-66
2021/12/26 04:53:03;;;;;;;42.95;22.38;;;;;;;1.40;85.07;97977.31;2618861;46;20026;-66
2021/12/26 04:55:33;;;;;;;47.75;26.20;;;;;;;1.56;85.21;97975.78;2618599;54;20034;-68
2021/12/26 04:58:03;;;;;;;41.35;19.48;;;;;;;1.57;84.67;97977.41;2618493;54;20035;-67
2021/12/26 05:00:34;;;;;;;44.53;21.65;;;;;;;1.47;84.74;97975.72;2618651;54;20038;-68
2021/12/26 05:03:07;;;;;;;46.92;21.92;;;;;;;1.48;85.08;97976.53;2618752;54;20544;-68
2021/12/26 05:05:38;;;;;;;43.17;22.17;;;;;;;1.48;84.76;97976.53;2618564;54;20035;-67
2021/12/26 05:08:10;;;;;;;42.30;20.92;;;;;;;1.53;85.20;97970.88;2618622;47;20031;-67
2021/12/26 05:10:40;;;;;;;49.80;22.58;;;;;;;1.46;84.81;97973.25;2619305;54;20031;-67
2021/12/26 05:13:10;;;;;;;49.08;23.08;;;;;;;1.50;84.65;97977.19;2619276;54;20033;-67
2021/12/26 05:15:40;;;;;;;44.97;22.35;;;;;;;1.51;85.13;97973.63;2618986;54;20227;-69
2021/12/26 05:18:10;;;;;;;46.47;22.02;;;;;;;1.48;84.92;97976.53;2618126;46;20529;-69
2021/12/26 05:20:40;;;;;;;46.08;23.15;;;;;;;1.44;85.01;97970.00;2618027;47;20018;-67
2021/12/26 05:23:12;;;;;;;43.92;22.10;;;;;;;1.41;84.66;97971.13;2619143;54;20035;-67
2021/12/26 05:25:43;;;;;;;43.58;22.13;;;;;;;1.40;84.80;97974.72;2619288;54;20041;-67
2021/12/26 05:28:13;;;;;;;43.00;21.13;;;;;;;1.45;84.97;97969.84;2619827;54;20557;-67
2021/12/26 05:30:44;;;;;;;43.60;21.85;;;;;;;1.43;84.50;97974.41;2618448;54;20030;-68
2021/12/26 05:33:17;;;;;;;40.03;19.65;;;;;;;1.42;84.24;97967.53;2618488;39;20418;-68
2021/12/26 05:35:50;;;;;;;46.28;21.63;;;;;;;1.40;84.48;97974.72;2619965;54;20042;-68
2021/12/26 05:38:23;;;;;;;43.78;22.23;;;;;;;1.44;84.66;97975.22;2621224;54;20039;-67
2021/12/26 05:40:52;;;;;;;43.45;22.35;;;;;;;1.51;85.06;97972.78;2618887;54;20158;-68
2021/12/26 05:43:22;;;;;;;39.33;21.67;;;;;;;1.52;84.58;97980.47;2618840;54;20042;-68
2021/12/26 05:45:52;;;;;;;45.55;21.33;;;;;;;1.49;84.50;97976.38;2617465;47;20038;-68
2021/12/26 05:48:23;;;;;;;45.83;21.48;;;;;;;1.47;84.50;97967.91;2617823;54;20025;-68
2021/12/26 05:50:55;;;;;;;44.80;22.67;;;;;;;1.44;84.11;97968.22;2618004;54;20758;-68
2021/12/26 05:53:46;;;;;;;46.47;21.92;;;;;;;1.40;84.43;97969.50;2618501;54;20038;-68
2021/12/26 05:56:15;;;;;;;46.35;21.42;;;;;;;1.39;84.92;97967.06;2617588;51;20018;-68
2021/12/26 05:58:51;;;;;;;46.85;21.67;;;;;;;1.46;84.76;97961.06;2617638;47;20169;-68
2021/12/26 06:01:23;;;;;;;42.88;21.40;;;;;;;1.49;84.84;97967.75;2617664;54;20050;-67
2021/12/26 06:03:54;;;;;;;50.00;21.98;;;;;;;1.43;84.20;97961.38;2617675;54;20058;-68
2021/12/26 06:06:24;;;;;;;50.30;24.35;;;;;;;1.41;84.62;97960.72;2617667;54;20030;-68
2021/12/26 06:08:58;;;;;;;47.97;23.52;;;;;;;1.43;84.98;97958.78;2617824;47;20110;-68
2021/12/26 06:11:28;;;;;;;46.42;21.88;;;;;;;1.43;85.04;97963.19;2617697;54;20022;-68
2021/12/26 06:13:58;;;;;;;42.20;22.35;;;;;;;1.41;84.72;97963.31;2617680;47;20029;-68
2021/12/26 06:16:29;;;;;;;43.40;21.00;;;;;;;1.43;84.95;97965.78;2617567;54;20546;-68
2021/12/26 06:18:59;;;;;;;43.65;20.27;;;;;;;1.51;84.94;97967.59;2617546;47;20074;-68
2021/12/26 06:21:58;;;;;;;42.15;21.13;;;;;;;1.56;84.91;97963.56;2618152;54;20146;-68
2021/12/26 06:24:53;;;;;;;42.60;21.27;;;;;;;1.61;84.82;97965.69;2617534;54;20133;-68
2021/12/26 06:27:29;;;;;;;41.70;19.75;;;;;;;1.63;84.49;97963.72;2617573;47;20110;-68
2021/12/26 06:30:21;;;;;;;36.75;20.08;;;;;;;1.58;84.47;97966.00;2617876;54;20045;-68
2021/12/26 06:33:10;;;;;;;38.97;19.77;;;;;;;1.52;84.15;97954.44;2618271;54;20045;-68
2021/12/26 06:35:58;;;;;;;41.17;20.02;;;;;;;1.56;84.92;97965.34;2618286;54;20062;-68
2021/12/26 06:38:47;;;;;;;34.85;18.15;;;;;;;1.66;84.54;97955.63;2618555;54;20061;-68
2021/12/26 06:41:38;;;;;;;35.85;19.23;;;;;;;1.72;84.76;97966.25;2618451;54;20037;-68
2021/12/26 06:44:26;;;;;;;34.97;18.02;;;;;;;1.66;83.94;97964.25;2618345;54;20046;-68
2021/12/26 06:47:02;;;;;;;31.70;17.00;;;;;;;1.61;84.38;97963.91;2617372;47;20031;-68
2021/12/26 06:49:44;;;;;;;34.47;18.65;;;;;;;1.66;84.65;97966.84;2617486;46;20022;-68
2021/12/26 06:52:14;;;;;;;32.90;18.40;;;;;;;1.72;84.45;97960.22;2617860;47;20041;-68
2021/12/26 06:54:43;;;;;;;32.88;18.13;;;;;;;1.80;84.32;97967.25;2617468;47;20042;-69
2021/12/26 06:57:16;;;;;;;32.22;18.33;;;;;;;1.80;84.43;97968.06;2617305;54;20042;-69
2021/12/26 06:59:45;;;;;;;30.02;16.73;;;;;;;1.79;84.15;97966.41;2617660;54;20027;-69
2021/12/26 07:02:16;;;;;;;33.90;18.25;;;;;;;1.79;83.88;97963.00;2617254;54;20041;-69
2021/12/26 07:04:54;;;;;;;34.33;18.30;;;;;;;1.71;83.56;97971.59;2617403;54;20031;-69
2021/12/26 07:07:30;;;;;;;35.25;18.83;;;;;;;1.65;83.87;97970.44;2617415;54;20030;-68
2021/12/26 07:10:00;;;;;;;33.67;17.88;;;;;;;1.73;84.38;97970.47;2618160;54;20026;-68
2021/12/26 07:12:33;;;;;;;29.48;17.15;;;;;;;1.78;84.46;97972.59;2617959;39;20485;-68
2021/12/26 07:15:25;;;;;;;31.67;16.70;;;;;;;1.87;84.08;97978.66;2617504;54;20046;-68
2021/12/26 07:18:01;;;;;;;29.75;17.15;;;;;;;1.84;83.76;97971.16;2617444;54;20041;-68
2021/12/26 07:20:37;;;;;;;31.42;17.98;;;;;;;1.84;83.88;97979.81;2617562;47;20033;-68
2021/12/26 07:23:25;;;;;;;31.35;16.98;;;;;;;1.85;83.84;97978.81;2618280;54;20065;-68
2021/12/26 07:26:01;;;;;;;30.08;17.20;;;;;;;1.85;83.79;97980.63;2617334;54;20030;-68
2021/12/26 07:28:33;;;;;;;32.78;17.45;;;;;;;1.84;83.70;97979.00;2617549;47;20092;-68
2021/12/26 07:31:12;;;;;;;32.22;17.77;;;;;;;1.81;83.39;97984.50;2617897;47;20034;-68
2021/12/26 07:33:44;;;;;;;33.67;17.52;;;;;;;1.81;83.56;97989.72;2617515;54;20118;-68
2021/12/26 07:36:14;;;;;;;31.27;17.25;;;;;;;1.80;83.34;97983.69;2617401;47;20030;-68
2021/12/26 07:38:54;;;;;;;29.90;15.85;;;;;;;1.80;83.49;97990.69;2617360;54;20065;-68
2021/12/26 07:41:30;;;;;;;29.00;16.45;;;;;;;1.77;83.68;97985.78;2617471;54;20037;-68
2021/12/26 07:44:02;;;;;;;31.88;17.35;;;;;;;1.79;83.40;97982.03;2617334;47;20060;-68
2021/12/26 07:46:50;;;;;;;33.97;17.10;;;;;;;1.77;83.23;97991.00;2618192;39;20438;-68
2021/12/26 07:49:22;;;;;;;33.50;18.10;;;;;;;1.75;83.58;97993.75;2617620;54;20022;-68
2021/12/26 07:52:13;;;;;;;31.80;16.52;;;;;;;1.69;83.49;97986.56;2618024;54;20046;-69
2021/12/26 07:55:01;;;;;;;30.02;16.13;;;;;;;1.67;83.47;97996.31;2618062;54;20632;-68
2021/12/26 07:57:50;;;;;;;28.85;15.95;;;;;;;1.65;83.38;97995.66;2618083;54;20037;-68
2021/12/26 08:00:55;;;;;;;31.55;16.33;;;;;;;1.74;83.59;97984.31;2617356;54;20062;-68
2021/12/26 08:03:39;;;;;;;29.90;16.85;;;;;;;1.79;83.47;97986.44;2617467;54;20541;-69
2021/12/26 08:06:27;;;;;;;32.05;17.02;;;;;;;1.83;83.66;97990.38;2617992;54;20072;-68
2021/12/26 08:08:58;;;;;;;34.40;19.65;;;;;;;1.90;83.79;97993.97;2622050;54;20058;-68
2021/12/26 08:11:27;;;;;;;31.38;17.13;;;;;;;1.93;83.37;97981.47;2623730;47;20034;-68
2021/12/26 08:13:57;;;;;;;31.58;17.42;;;;;;;1.91;83.49;97990.41;2623319;54;20071;-68
2021/12/26 08:16:30;;;;;;;25.73;15.60;;;;;;;1.88;83.39;97985.53;2624197;54;20041;-69
2021/12/26 08:19:01;;;;;;;26.70;15.63;;;;;;;1.88;83.47;97994.16;2623738;54;20030;-68
2021/12/26 08:21:30;;;;;;;30.00;16.02;;;;;;;1.85;83.59;97989.25;2624122;54;20061;-69
2021/12/26 08:24:00;;;;;;;25.17;14.85;;;;;;;1.84;83.17;97986.81;2624134;54;20053;-69
2021/12/26 08:26:32;;;;;;;24.88;14.85;;;;;;;1.86;83.54;97987.44;2623364;54;20034;-69
2021/12/26 08:29:02;;;;;;;24.40;14.07;;;;;;;1.88;83.68;97990.72;2623742;54;20027;-69
2021/12/26 08:31:34;;;;;;;27.95;16.48;;;;;;;1.84;83.17;97981.59;2619479;54;20038;-69
2021/12/26 08:34:04;;;;;;;31.17;17.20;;;;;;;1.84;83.54;97984.19;2618033;54;20030;-69
2021/12/26 08:36:33;;;;;;;28.05;15.90;;;;;;;1.91;84.02;97990.41;2618159;54;20038;-69
2021/12/26 08:39:03;;;;;;;25.65;15.82;;;;;;;1.93;83.57;97991.88;2617824;54;20057;-69
2021/12/26 08:41:33;;;;;;;23.83;14.85;;;;;;;1.92;83.90;97992.06;2617535;54;20562;-68
2021/12/26 08:44:02;;;;;;;25.25;14.00;;;;;;;1.97;83.79;97993.19;2618129;54;20113;-68
2021/12/26 08:46:35;;;;;;;24.65;14.02;;;;;;;1.92;83.38;97992.88;2618623;54;20031;-69
2021/12/26 09:01:20;;;;;;;36.58;18.85;;;;;;;2.11;83.25;98001.38;2618460;39;20446;-67
2021/12/26 09:03:52;;;;;;;26.17;15.45;;;;;;;2.23;83.34;97998.31;2618677;54;20035;-67
2021/12/26 09:06:22;;;;;;;26.67;15.23;;;;;;;2.25;83.43;98003.41;2618285;54;20041;-67
2021/12/26 09:08:53;;;;;;;26.13;14.50;;;;;;;2.35;83.80;98005.84;2617596;54;20561;-68
2021/12/26 09:11:23;;;;;;;23.05;14.27;;;;;;;2.44;83.85;98008.31;2618127;54;20046;-70
2021/12/26 09:13:52;;;;;;;26.02;13.68;;;;;;;2.48;83.30;98014.84;2622455;54;20034;-70
2021/12/26 09:16:22;;;;;;;28.05;15.40;;;;;;;2.51;82.48;98008.50;2623398;54;20026;-69
2021/12/26 09:18:54;;;;;;;25.25;15.30;;;;;;;2.44;82.42;98018.75;2624081;54;20030;-69
2021/12/26 09:21:24;;;;;;;24.83;14.13;;;;;;;2.36;82.27;98017.91;2623243;54;20022;-68
2021/12/26 09:23:54;;;;;;;25.58;14.40;;;;;;;2.35;82.26;98024.91;2623667;54;20042;-69
2021/12/26 09:26:23;;;;;;;27.85;14.82;;;;;;;2.37;82.45;98023.00;2623710;54;20030;-71
2021/12/26 09:28:53;;;;;;;25.40;13.90;;;;;;;2.37;82.53;98019.56;2623148;54;20030;-70
2021/12/26 09:31:23;;;;;;;26.88;14.85;;;;;;;2.35;82.39;98016.28;2623712;54;20046;-71
2021/12/26 09:33:55;;;;;;;25.83;14.30;;;;;;;2.37;82.58;98019.56;2623747;54;20145;-70
2021/12/26 09:36:25;;;;;;;24.73;14.25;;;;;;;2.36;82.15;98016.13;2623574;54;20034;-69
2021/12/26 09:38:55;;;;;;;23.45;14.25;;;;;;;2.37;82.42;98016.97;2623582;47;20049;-69
2021/12/26 09:41:25;;;;;;;26.45;13.95;;;;;;;2.40;82.36;98021.81;2624315;46;20041;-72
2021/12/26 09:43:55;;;;;;;25.67;15.18;;;;;;;2.45;82.40;98019.59;2624785;46;20023;-70
2021/12/26 09:46:24;;;;;;;26.08;14.35;;;;;;;2.50;82.21;98021.72;2623764;54;20556;-71
2021/12/26 09:48:57;;;;;;;25.48;15.07;;;;;;;2.56;81.88;98018.44;2622969;54;20035;-71
2021/12/26 09:51:27;;;;;;;22.45;13.60;;;;;;;2.59;82.24;98015.50;2623706;54;20065;-71
2021/12/26 09:53:56;;;;;;;24.88;14.85;;;;;;;2.66;82.29;98022.53;2623930;54;20042;-71
2021/12/26 09:56:30;;;;;;;23.27;14.68;;;;;;;2.71;81.79;98014.22;2622325;47;20038;-69
2021/12/26 09:59:02;;;;;;;23.77;14.25;;;;;;;2.69;81.90;98014.41;2623084;54;20034;-70
2021/12/26 10:01:39;;;;;;;24.15;13.98;;;;;;;2.66;81.25;98008.69;2622940;46;20019;-71
2021/12/26 10:04:21;;;;;;;23.20;13.88;;;;;;;2.63;81.74;98001.97;2623850;54;20046;-71
2021/12/26 10:06:53;;;;;;;26.15;13.52;;;;;;;2.62;81.88;98002.97;2623203;54;20074;-71
2021/12/26 10:09:23;;;;;;;22.55;13.75;;;;;;;2.61;81.81;98000.50;2623891;54;20031;-71
2021/12/26 10:11:54;;;;;;;22.75;13.77;;;;;;;2.62;81.81;98000.34;2622873;47;20042;-71
2021/12/26 10:14:25;;;;;;;22.27;14.05;;;;;;;2.61;81.99;97996.13;2622955;54;20022;-71
2021/12/26 10:16:57;;;;;;;25.73;14.15;;;;;;;2.60;81.78;97996.28;2622456;54;20123;-71
2021/12/26 10:19:34;;;;;;;23.40;14.55;;;;;;;2.60;81.84;97993.66;2621784;54;20026;-71
2021/12/26 10:22:06;;;;;;;24.17;14.55;;;;;;;2.62;82.28;97989.09;2621578;47;20035;-69
2021/12/26 10:24:38;;;;;;;29.50;15.35;;;;;;;2.70;82.25;97991.72;2622376;54;20034;-70
2021/12/26 10:27:10;;;;;;;22.33;14.13;;;;;;;2.69;81.97;97984.84;2620914;54;20034;-71
2021/12/26 10:29:42;;;;;;;29.35;15.02;;;;;;;2.71;82.26;97973.28;2622633;54;20031;-71
2021/12/26 10:32:14;;;;;;;23.42;14.07;;;;;;;2.68;81.97;97978.81;2623710;47;20057;-71
2021/12/26 10:34:48;;;;;;;29.13;16.77;;;;;;;2.66;82.23;97983.41;2623184;54;20552;-71
2021/12/26 10:37:23;;;;;;;32.03;15.80;;;;;;;2.67;82.39;97971.97;2623571;54;20035;-71
2021/12/26 10:39:56;;;;;;;24.55;14.70;;;;;;;2.67;82.48;97965.94;2623151;47;20033;-71
2021/12/26 10:42:28;;;;;;;27.77;16.13;;;;;;;2.67;82.43;97984.22;2623428;54;20027;-71
2021/12/26 10:45:00;;;;;;;26.67;15.48;;;;;;;2.67;82.69;97976.38;2623259;47;20022;-71
2021/12/26 10:47:32;;;;;;;30.70;16.30;;;;;;;2.71;82.44;97973.28;2623061;47;20048;-71
2021/12/26 10:50:08;;;;;;;27.98;15.98;;;;;;;2.65;82.28;97971.34;2623068;54;20052;-71
2021/12/26 10:52:40;;;;;;;29.90;16.83;;;;;;;2.75;82.02;97971.16;2624035;54;20038;-70
2021/12/26 10:55:12;;;;;;;25.63;15.35;;;;;;;2.78;82.11;97972.66;2623173;54;20038;-71
2021/12/26 10:57:43;;;;;;;24.45;14.60;;;;;;;2.73;82.30;97970.50;2623562;54;20058;-69
2021/12/26 11:00:20;;;;;;;25.85;14.15;;;;;;;2.70;81.98;97963.00;2624046;54;20045;-70
2021/12/26 11:02:52;;;;;;;23.90;13.48;;;;;;;2.71;82.34;97955.00;2622388;54;20050;-71
2021/12/26 11:05:26;;;;;;;22.63;13.93;;;;;;;2.74;81.96;97953.88;2619699;54;20050;-71
2021/12/26 11:08:00;;;;;;;23.40;13.70;;;;;;;2.89;82.04;97949.59;2622775;54;20038;-71
2021/12/26 11:10:33;;;;;;;23.88;13.50;;;;;;;2.95;81.63;97953.38;2623726;54;20034;-71
2021/12/26 11:13:05;;;;;;;20.27;12.95;;;;;;;3.05;81.47;97956.63;2623472;47;20018;-71
2021/12/26 11:15:38;;;;;;;17.77;11.57;;;;;;;3.06;81.30;97958.25;2624122;39;20401;-70
2021/12/26 11:18:09;;;;;;;19.75;11.43;;;;;;;3.11;81.23;97960.38;2623748;47;20081;-71
2021/12/26 11:20:43;;;;;;;21.02;12.65;;;;;;;3.13;81.91;97961.81;2623078;47;20033;-72
2021/12/26 11:23:18;;;;;;;20.27;11.90;;;;;;;2.99;81.58;97957.28;2623417;54;20560;-71
2021/12/26 11:25:50;;;;;;;23.08;11.63;;;;;;;3.06;81.93;97957.44;2623749;46;20027;-73
2021/12/26 11:28:26;;;;;;;18.23;11.20;;;;;;;3.01;81.64;97955.31;2623898;39;20397;-70
2021/12/26 11:30:58;;;;;;;17.48;10.77;;;;;;;2.98;81.45;97945.22;2624161;47;20026;-71
2021/12/26 11:33:29;;;;;;;21.10;11.13;;;;;;;3.02;81.62;97949.13;2622873;47;20034;-70
2021/12/26 11:36:02;;;;;;;72.07;39.58;;;;;;;3.21;81.69;97950.56;2623521;54;20039;-71
2021/12/26 11:38:33;;;;;;;19.33;11.45;;;;;;;3.27;81.76;97952.50;2623243;54;20026;-70
2021/12/26 11:41:31;;;;;;;18.02;10.85;;;;;;;3.23;81.17;97948.59;2624195;54;20045;-71
2021/12/26 11:44:44;;;;;;;15.80;11.05;;;;;;;3.22;81.33;97941.72;2624633;54;20560;-72
2021/12/26 11:47:58;;;;;;;16.25;10.38;;;;;;;3.18;81.06;97936.03;2623887;47;20073;-71
2021/12/26 11:51:15;;;;;;;19.02;11.60;;;;;;;3.30;81.44;97933.88;2625063;39;20426;-70
2021/12/26 11:54:18;;;;;;;16.83;10.70;;;;;;;3.26;80.87;97934.38;2624283;54;20045;-71
2021/12/26 11:57:07;;;;;;;16.98;11.38;;;;;;;3.20;80.85;97930.66;2623159;54;20035;-71
2021/12/26 11:59:53;;;;;;;17.35;11.52;;;;;;;3.23;81.33;97936.34;2623012;47;20022;-70
2021/12/26 12:02:46;;;;;;;39.42;19.35;;;;;;;3.16;81.28;97931.97;2623687;54;20135;-71
2021/12/26 12:05:20;;;;;;;29.48;15.10;;;;;;;3.17;81.59;97931.78;2624331;54;20029;-70
2021/12/26 12:07:57;;;;;;;26.50;14.50;;;;;;;3.15;81.14;97922.50;2623961;54;20573;-70
2021/12/26 12:10:36;;;;;;;20.63;12.75;;;;;;;3.09;81.11;97917.94;2623703;54;20522;-71
2021/12/26 12:13:09;;;;;;;21.70;12.18;;;;;;;3.09;81.71;97925.75;2624057;54;20038;-71